Data for 03/14/2005

Time Sea-Level Adjusted Pressure Absolute Pressure Temperature Relative Humidity Dew Point   
(mb) (inHg) (mb) (inHg) (C) (F) (%) (C) (F)
00:05 1023 30.21 852 25.16 -3.1 26.4 69 -8.1 17.5
00:10 1023 30.21 852 25.16 -3.2 26.2 69 -8 17.5
00:15 1023 30.21 852 25.16 -3.4 25.9 70 -8.1 17.4
00:20 1023 30.21 852 25.16 -3.4 25.8 70 -8 17.5
00:25 1023 30.21 852 25.16 -3.5 25.7 71 -8.1 17.4
00:30 1023 30.21 852 25.16 -3.6 25.6 71 -8.2 17.3
00:35 1023 30.21 852 25.16 -3.7 25.4 71 -8.2 17.3
00:40 1023 30.21 852 25.16 -3.7 25.3 72 -8.1 17.4
00:45 1023 30.21 852 25.16 -3.8 25.1 72 -8.1 17.4
00:50 1023 30.21 852 25.16 -4 24.9 73 -8.2 17.3
00:55 1023 30.21 852 25.16 -4 24.8 73 -8.2 17.2
01:00 1023 30.21 852 25.16 -4 24.8 72 -8.2 17.2
01:05 1023 30.21 852 25.16 -4 24.8 72 -8.3 17
01:10 1023 30.21 852 25.16 -4 24.9 72 -8.3 17
01:15 1023 30.21 852 25.16 -3.9 24.9 72 -8.3 17.1
01:20 1023 30.21 852 25.16 -4.1 24.6 72 -8.4 16.9
01:25 1023 30.21 852 25.16 -4 24.7 71 -8.5 16.7
01:30 1023 30.21 852 25.16 -3.9 25 70 -8.6 16.5
01:35 1023 30.21 852 25.16 -3.9 24.9 70 -8.6 16.5
01:40 1023 30.21 852 25.16 -4.1 24.6 71 -8.7 16.4
01:45 1023 30.21 852 25.16 -4.2 24.5 71 -8.7 16.3
01:50 1023 30.21 852 25.16 -4.3 24.2 72 -8.6 16.4
01:55 1023 30.21 852 25.16 -4.3 24.2 72 -8.6 16.4
02:00 1023 30.21 852 25.16 -4.3 24.3 72 -8.6 16.6
02:05 1023 30.21 852 25.16 -4.3 24.2 73 -8.5 16.7
02:10 1022 30.18 852 25.16 -4.3 24.2 72 -8.6 16.5
02:15 1022 30.18 852 25.16 -4.3 24.2 73 -8.5 16.7
02:20 1022 30.18 852 25.16 -4.3 24.3 72 -8.7 16.4
02:25 1022 30.18 852 25.16 -4.2 24.4 72 -8.5 16.7
02:30 1022 30.18 851 25.13 -4.1 24.6 71 -8.6 16.5
02:35 1022 30.18 851 25.13 -4 24.9 70 -8.7 16.4
02:40 1022 30.18 851 25.13 -3.9 25 69 -8.7 16.4
02:45 1022 30.18 851 25.13 -3.8 25.1 69 -8.7 16.3
02:50 1022 30.18 851 25.13 -3.7 25.4 69 -8.5 16.7
02:55 1022 30.18 851 25.13 -3.7 25.3 69 -8.6 16.6
03:00 1022 30.18 851 25.13 -3.7 25.3 71 -8.3 17.1
03:05 1022 30.18 851 25.13 -3.8 25.1 71 -8.3 17
03:10 1022 30.18 851 25.13 -3.8 25.2 71 -8.2 17.2
03:15 1022 30.18 851 25.13 -3.8 25.2 71 -8.2 17.2
03:20 1022 30.18 851 25.13 -3.8 25.2 71 -8.2 17.2
03:25 1022 30.18 851 25.13 -3.6 25.4 68 -8.8 16.2
03:30 1022 30.18 851 25.13 -3.6 25.6 68 -8.7 16.4
03:35 1022 30.18 851 25.13 -3.5 25.7 68 -8.5 16.6
03:40 1022 30.18 851 25.13 -3.5 25.8 68 -8.5 16.7
03:45 1022 30.18 851 25.13 -3.5 25.7 67 -8.7 16.4
03:50 1022 30.18 851 25.13 -3.5 25.7 68 -8.6 16.5
03:55 1022 30.18 851 25.13 -3.5 25.6 68 -8.6 16.5
04:00 1022 30.18 851 25.13 -3.6 25.5 69 -8.4 16.8
04:05 1022 30.18 851 25.13 -3.6 25.5 70 -8.4 16.9
04:10 1022 30.18 851 25.13 -3.6 25.4 71 -8.2 17.2
04:15 1022 30.18 851 25.13 -3.7 25.3 72 -8.1 17.4
04:20 1022 30.18 851 25.13 -3.8 25.1 73 -8 17.6
04:25 1022 30.18 851 25.13 -3.9 25 73 -7.9 17.7
04:30 1022 30.18 851 25.13 -3.9 24.9 73 -8 17.5
04:35 1022 30.18 851 25.13 -3.9 25 73 -8.1 17.4
04:40 1022 30.18 851 25.13 -3.9 25 72 -8.1 17.4
04:45 1022 30.18 851 25.13 -4 24.8 73 -8.1 17.4
04:50 1022 30.18 851 25.13 -4.1 24.6 76 -7.7 18.1
04:55 1021 30.15 851 25.13 -4.2 24.4 77 -7.7 18.1
05:00 1021 30.15 851 25.13 -4.2 24.4 74 -8.3 17.1
05:05 1021 30.15 851 25.13 -4 24.7 73 -8.2 17.3
05:10 1021 30.15 851 25.13 -4 24.7 73 -8.1 17.4
05:15 1021 30.15 851 25.13 -4.1 24.7 74 -8.1 17.5
05:20 1021 30.15 850 25.1 -4 24.8 73 -8.1 17.5
05:25 1021 30.15 850 25.1 -3.9 25 72 -8.2 17.3
05:30 1021 30.15 851 25.13 -3.9 25.1 72 -8.2 17.2
05:35 1021 30.15 851 25.13 -3.9 25 72 -8.3 17.1
05:40 1021 30.15 851 25.13 -3.8 25.1 72 -8.2 17.2
05:45 1021 30.15 851 25.13 -3.8 25.2 72 -8.1 17.4
05:50 1021 30.15 851 25.13 -3.8 25.1 73 -8 17.6
05:55 1021 30.15 851 25.13 -4 24.8 75 -7.9 17.8
06:00 1021 30.15 850 25.1 -4.1 24.5 75 -7.9 17.8
06:05 1021 30.15 850 25.1 -4.1 24.6 72 -8.4 16.9
06:10 1021 30.15 850 25.1 -4 24.8 73 -8.2 17.3
06:15 1021 30.15 850 25.1 -3.9 25 73 -8.1 17.5
06:20 1021 30.15 850 25.1 -3.8 25.1 73 -8 17.5
06:25 1021 30.15 850 25.1 -3.9 25 73 -8.1 17.5
06:30 1021 30.15 850 25.1 -3.8 25.2 73 -7.9 17.7
06:35 1021 30.15 850 25.1 -3.7 25.4 72 -8 17.6
06:40 1021 30.15 850 25.1 -3.7 25.3 72 -8 17.5
06:45 1021 30.15 850 25.1 -3.8 25.2 72 -8.1 17.3
06:50 1021 30.15 850 25.1 -3.7 25.4 73 -7.9 17.9
06:55 1021 30.15 850 25.1 -3.6 25.5 73 -7.9 17.9
07:00 1021 30.15 850 25.1 -3.6 25.5 72 -8 17.7
07:05 1021 30.15 850 25.1 -3.6 25.4 72 -8 17.5
07:10 1021 30.15 850 25.1 -3.6 25.5 71 -8.1 17.5
07:15 1021 30.15 850 25.1 -3.6 25.5 71 -8.1 17.4
07:20 1021 30.15 850 25.1 -3.6 25.4 70 -8.3 17
07:25 1021 30.15 850 25.1 -3.6 25.4 72 -8 17.7
07:30 1021 30.15 850 25.1 -3.6 25.5 72 -8 17.7
07:35 1021 30.15 850 25.1 -3.7 25.4 72 -8.1 17.5
07:40 1021 30.15 850 25.1 -3.8 25.2 73 -8 17.6
07:45 1021 30.15 850 25.1 -3.8 25.1 74 -7.8 17.9
07:50 1021 30.15 850 25.1 -3.8 25.1 75 -7.7 18.2
07:55 1021 30.15 850 25.1 -3.7 25.3 74 -7.6 18.3
08:00 1021 30.15 850 25.1 -3.4 25.8 73 -7.6 18.3
08:05 1021 30.15 850 25.1 -3.2 26.3 72 -7.6 18.3
08:10 1021 30.15 850 25.1 -3.1 26.3 72 -7.5 18.5
08:15 1021 30.15 850 25.1 -3.2 26.3 72 -7.6 18.3
08:20 1021 30.15 850 25.1 -3.1 26.4 71 -7.7 18.2
08:25 1021 30.15 850 25.1 -3 26.6 70 -7.6 18.2
08:30 1021 30.15 850 25.1 -2.8 26.9 71 -7.5 18.6
08:35 1021 30.15 850 25.1 -2.8 27 72 -7.2 19
08:40 1021 30.15 850 25.1 -2.7 27.1 72 -7.1 19.2
08:45 1021 30.15 850 25.1 -2.8 27 71 -7.3 18.9
08:50 1020 30.12 850 25.1 -2.8 27 72 -7.1 19.2
08:55 1021 30.15 850 25.1 -2.8 27 71 -7.3 18.8
09:00 1021 30.15 850 25.1 -2.8 27 72 -7.2 19
09:05 1021 30.15 850 25.1 -2.9 26.8 74 -7 19.5
09:10 1021 30.15 850 25.1 -2.9 26.7 75 -6.8 19.7
09:15 1021 30.15 850 25.1 -3.2 26.2 77 -6.7 20
09:20 1021 30.15 850 25.1 -3.6 25.4 82 -6.2 20.8
09:25 1020 30.12 850 25.1 -3.4 25.8 82 -6.1 20.9
09:30 1020 30.12 850 25.1 -3.3 26.1 81 -6.1 21
09:35 1020 30.12 850 25.1 -3.6 25.5 82 -6.2 20.9
09:40 1020 30.12 850 25.1 -3.8 25.2 82 -6.4 20.6
09:45 1020 30.12 850 25.1 -3.6 25.6 82 -6.2 20.9
09:50 1020 30.12 850 25.1 -3.2 26.3 79 -6.4 20.5
09:55 1020 30.12 850 25.1 -3.2 26.2 79 -6.4 20.6
10:00 1020 30.12 849 25.07 -3.3 26 80 -6.4 20.5
10:05 1020 30.12 849 25.07 -3.4 25.9 81 -6.2 20.9
10:10 1020 30.12 849 25.07 -3.1 26.4 77 -6.6 20.2
10:15 1020 30.12 849 25.07 -2.5 27.6 76 -6.1 21.1
10:20 1020 30.12 849 25.07 -3 26.6 76 -6.6 20
10:25 1020 30.12 849 25.07 -2.6 27.3 76 -6.3 20.7
10:30 1020 30.12 849 25.07 -2.3 27.9 73 -6.5 20.3
10:35 1020 30.12 849 25.07 -2.6 27.4 74 -6.6 20.1
10:40 1020 30.12 849 25.07 -3 26.5 74 -7 19.4
10:45 1020 30.12 849 25.07 -3 26.7 74 -7 19.4
10:50 1020 30.12 849 25.07 -2.8 27 73 -7.1 19.3
10:55 1020 30.12 849 25.07 -2.2 28.1 69 -7.2 19.1
11:00 1020 30.12 849 25.07 -1.6 29.1 67 -7 19.4
11:05 1020 30.12 849 25.07 -1.5 29.4 67 -6.9 19.7
11:10 1020 30.12 849 25.07 -1.5 29.2 65 -7.2 19
11:15 1020 30.12 849 25.07 -0.9 30.4 62 -7.3 18.9
11:20 1020 30.12 849 25.07 -0.8 30.6 61 -7.4 18.7
11:25 1020 30.12 849 25.07 -0.7 30.8 59 -7.8 18
11:30 1020 30.12 849 25.07 -0.4 31.2 59 -7.6 18.4
11:35 1020 30.12 849 25.07 0.4 32.7 54 -7.8 17.9
11:40 1020 30.12 849 25.07 0.1 32.1 55 -7.9 17.7
11:45 1020 30.12 849 25.07 0.4 32.7 54 -8 17.6
11:50 1020 30.12 849 25.07 0.8 33.4 51 -8.1 17.3
11:55 1020 30.12 849 25.07 0.9 33.6 52 -7.8 17.9
12:00 1020 30.12 849 25.07 1.3 34.4 51 -7.7 18.1
12:05 1020 30.12 849 25.07 1.6 34.9 48 -8.3 17
12:10 1020 30.12 849 25.07 1.6 34.9 50 -7.7 18.1
12:15 1020 30.12 849 25.07 1.1 34 53 -7.3 18.8
12:20 1020 30.12 849 25.07 0.6 33.1 56 -7.3 18.8
12:25 1019 30.09 849 25.07 0.6 33 56 -7.3 18.9
12:30 1019 30.09 849 25.07 1 33.9 55 -7.1 19.2
12:35 1019 30.09 849 25.07 1.6 34.9 54 -6.6 20.1
12:40 1019 30.09 848 25.04 1.3 34.4 57 -6.2 20.9
12:45 1019 30.09 848 25.04 1.6 34.8 59 -5.6 21.9
12:50 1019 30.09 848 25.04 1.7 35.1 56 -6.1 21.1
12:55 1019 30.09 848 25.04 1.9 35.4 53 -6.6 20.1
13:00 1019 30.09 848 25.04 2 35.6 51 -7 19.4
13:05 1019 30.09 848 25.04 2 35.6 49 -7.6 18.4
13:10 1019 30.09 848 25.04 0.9 33.6 57 -6.8 19.8
13:15 1019 30.09 848 25.04 0.2 32.4 58 -7 19.4
13:20 1019 30.09 848 25.04 0.4 32.7 58 -7 19.4
13:25 1018 30.06 848 25.04 0.6 33 58 -6.8 19.7
13:30 1018 30.06 848 25.04 0.8 33.4 52 -8 17.6
13:35 1018 30.06 848 25.04 1.1 34 54 -7.2 19
13:40 1018 30.06 847 25.01 1.9 35.4 50 -7.5 18.4
13:45 1018 30.06 847 25.01 1.5 34.8 52 -7.3 18.9
13:50 1018 30.06 847 25.01 1.5 34.7 50 -7.8 18
13:55 1018 30.06 847 25.01 1.8 35.3 50 -7.4 18.7
14:00 1018 30.06 847 25.01 2.3 36.2 49 -7.4 18.7
14:05 1018 30.06 847 25.01 2.3 36.2 50 -6.9 19.5
14:10 1018 30.06 847 25.01 2.7 36.9 48 -7.2 19.1
14:15 1018 30.06 847 25.01 2 35.7 56 -5.9 21.3
14:20 1018 30.06 847 25.01 1 33.7 64 -5 22.9
14:25 1018 30.06 847 25.01 0.2 32.4 69 -4.9 23.2
14:30 1018 30.06 847 25.01 -0.3 31.4 73 -4.6 23.7
14:35 1018 30.06 847 25.01 -0.7 30.8 75 -4.6 23.7
14:40 1018 30.06 847 25.01 -1.2 29.9 78 -4.5 23.9
14:45 1018 30.06 847 25.01 -1.1 29.9 85 -3.4 26
14:50 1018 30.06 847 25.01 -1.5 29.3 87 -3.4 25.9
14:55 1018 30.06 847 25.01 -1.7 29 91 -2.9 26.7
15:00 1018 30.06 847 25.01 -1.4 29.5 84 -3.7 25.3
15:05 1018 30.06 847 25.01 -1.2 29.8 82 -3.9 25
15:10 1018 30.06 847 25.01 -0.7 30.7 80 -3.8 25.2
15:15 1018 30.06 847 25.01 -0.7 30.7 78 -4.1 24.6
15:20 1018 30.06 847 25.01 -0.1 31.9 76 -3.8 25.2
15:25 1018 30.06 847 25.01 0.2 32.3 79 -3 26.6
15:30 1018 30.06 847 25.01 0.6 33.1 78 -2.8 26.9
15:35 1018 30.06 847 25.01 0.6 33.1 72 -3.9 24.9
15:40 1018 30.06 847 25.01 0.2 32.3 74 -3.9 24.9
15:45 1018 30.06 847 25.01 -0.2 31.7 75 -4 24.7
15:50 1018 30.06 847 25.01 -0.7 30.7 77 -4.2 24.5
15:55 1018 30.06 847 25.01 -0.3 31.4 72 -4.8 23.4
16:00 1018 30.06 847 25.01 -0.3 31.4 73 -4.7 23.6
16:05 1018 30.06 847 25.01 -0.5 31.1 71 -5.2 22.7
16:10 1018 30.06 847 25.01 -0.4 31.2 76 -4.2 24.5
16:15 1018 30.06 847 25.01 -0.5 31.2 77 -4.1 24.6
16:20 1018 30.06 847 25.01 -0.4 31.2 71 -5.1 22.9
16:25 1018 30.06 847 25.01 -0.8 30.5 76 -4.6 23.7
16:30 1018 30.06 847 25.01 -0.7 30.8 75 -4.6 23.8
16:35 1018 30.06 847 25.01 -0.9 30.4 79 -4.1 24.6
16:40 1018 30.06 847 25.01 -0.8 30.6 79 -4.1 24.7
16:45 1018 30.06 847 25.01 -0.7 30.7 80 -3.8 25.1
16:50 1018 30.06 847 25.01 -0.8 30.6 81 -3.7 25.3
16:55 1018 30.06 847 25.01 -1.2 29.8 82 -4 24.8
17:00 1018 30.06 847 25.01 -1.3 29.7 82 -4 24.9
17:05 1018 30.06 847 25.01 -1.8 28.8 87 -3.7 25.3
17:10 1018 30.06 847 25.01 -1.8 28.8 86 -3.8 25.1
17:15 1018 30.06 847 25.01 -1.4 29.4 85 -3.7 25.4
17:20 1018 30.06 847 25.01 -1.9 28.6 87 -3.7 25.3
17:25 1018 30.06 847 25.01 -1.8 28.8 89 -3.3 26
17:30 1018 30.06 847 25.01 -1.9 28.5 91 -3.3 26.1
17:35 1018 30.06 847 25.01 -1.9 28.7 92 -3 26.6
17:40 1018 30.06 847 25.01 -2.1 28.2 93 -3.1 26.4
17:45 1018 30.06 847 25.01 -2.5 27.5 92 -3.6 25.6
17:50 1018 30.06 847 25.01 -2.6 27.3 94 -3.5 25.6
17:55 1018 30.06 847 25.01 -2.7 27.2 90 -4 24.8
18:00 1018 30.06 847 25.01 -2.8 27 90 -4.2 24.5
18:05 1018 30.06 847 25.01 -2.8 26.9 91 -4 24.7
18:10 1018 30.06 847 25.01 -2.7 27.2 90 -4.2 24.5
18:15 1018 30.06 847 25.01 -2.7 27.1 89 -4.2 24.4
18:20 1018 30.06 847 25.01 -2.8 26.9 89 -4.4 24.1
18:25 1018 30.06 847 25.01 -2.9 26.8 89 -4.5 23.9
18:30 1018 30.06 847 25.01 -2.8 26.9 87 -4.7 23.5
18:35 1018 30.06 847 25.01 -2.7 27.1 86 -4.8 23.4
18:40 1018 30.06 847 25.01 -2.6 27.3 85 -4.8 23.3
18:45 1018 30.06 847 25.01 -2.6 27.4 83 -5.1 22.8
18:50 1018 30.06 847 25.01 -2.7 27.1 85 -4.9 23.3
18:55 1018 30.06 847 25.01 -3.1 26.5 92 -4.2 24.4
19:00 1018 30.06 847 25.01 -3.2 26.2 94 -4 24.8
19:05 1018 30.06 847 25.01 -3.5 25.7 96 -4 24.8
19:10 1018 30.06 847 25.01 -3.6 25.5 97 -4.1 24.6
19:15 1018 30.06 847 25.01 -3.4 25.8 97 -3.8 25.2
19:20 1018 30.06 847 25.01 -3.1 26.4 94 -3.9 25
19:25 1018 30.06 847 25.01 -3.1 26.4 95 -3.8 25.2
19:30 1018 30.06 847 25.01 -3.2 26.2 96 -3.8 25.1
19:35 1018 30.06 847 25.01 -3.1 26.4 96 -3.7 25.3
19:40 1018 30.06 847 25.01 -3 26.6 95 -3.7 25.4
19:45 1018 30.06 847 25.01 -2.9 26.8 95 -3.6 25.5
19:50 1018 30.06 847 25.01 -2.9 26.9 95 -3.6 25.5
19:55 1018 30.06 847 25.01 -2.9 26.8 93 -3.8 25.1
20:00 1018 30.06 847 25.01 -2.9 26.8 92 -4 24.9
20:05 1018 30.06 847 25.01 -2.8 26.9 92 -3.9 25
20:10 1018 30.06 847 25.01 -2.8 27 91 -4 24.8
20:15 1018 30.06 847 25.01 -2.9 26.7 93 -4 24.9
20:20 1018 30.06 847 25.01 -3.4 25.9 94 -4.2 24.4
20:25 1018 30.06 847 25.01 -3.5 25.6 94 -4.4 24.1
20:30 1018 30.06 847 25.01 -3.5 25.7 93 -4.4 24
20:35 1018 30.06 847 25.01 -3.5 25.7 93 -4.5 23.9
20:40 1018 30.06 847 25.01 -3.3 26 91 -4.6 23.8
20:45 1018 30.06 847 25.01 -3.2 26.2 91 -4.5 23.9
20:50 1018 30.06 847 25.01 -3.2 26.2 91 -4.5 23.8
20:55 1018 30.06 847 25.01 -3.2 26.3 90 -4.6 23.7
21:00 1018 30.06 847 25.01 -3.2 26.3 90 -4.5 23.8
21:05 1018 30.06 847 25.01 -3.3 26 91 -4.6 23.7
21:10 1018 30.06 847 25.01 -3.5 25.8 91 -4.8 23.4
21:15 1018 30.06 847 25.01 -3.5 25.7 89 -5.1 22.8
21:20 1018 30.06 847 25.01 -3.5 25.7 88 -5.3 22.5
21:25 1018 30.06 847 25.01 -3.8 25.2 87 -5.6 21.9
21:30 1018 30.06 847 25.01 -3.7 25.3 86 -5.7 21.7
21:35 1018 30.06 847 25.01 -4.1 24.7 87 -5.9 21.3
21:40 1018 30.06 847 25.01 -4.4 24.1 87 -6.3 20.7
21:45 1018 30.06 847 25.01 -4.7 23.6 86 -6.7 20
21:50 1017 30.03 846 24.98 -4.7 23.6 84 -6.9 19.5
21:55 1017 30.03 846 24.98 -4.2 24.5 84 -6.4 20.4
22:00 1017 30.03 846 24.98 -4.2 24.4 84 -6.5 20.3
22:05 1017 30.03 847 25.01 -4.6 23.7 88 -6.3 20.6
22:10 1018 30.06 847 25.01 -4.8 23.4 88 -6.4 20.5
22:15 1018 30.06 847 25.01 -4.7 23.5 87 -6.5 20.3
22:20 1017 30.03 847 25.01 -4.6 23.7 89 -6.2 20.8
22:25 1017 30.03 846 24.98 -4.8 23.3 89 -6.4 20.4
22:30 1017 30.03 847 25.01 -4.9 23.2 89 -6.4 20.5
22:35 1017 30.03 847 25.01 -4.9 23.2 87 -6.8 19.8
22:40 1017 30.03 846 24.98 -4.7 23.5 85 -6.8 19.7
22:45 1017 30.03 847 25.01 -4.6 23.7 86 -6.6 20.1
22:50 1018 30.06 847 25.01 -4.7 23.6 86 -6.7 20
22:55 1018 30.06 847 25.01 -4.6 23.8 85 -6.7 19.9
23:00 1018 30.06 847 25.01 -4.4 24 85 -6.6 20.2
23:05 1018 30.06 847 25.01 -4.5 24 87 -6.3 20.6
23:10 1018 30.06 847 25.01 -4.7 23.6 88 -6.4 20.5
23:15 1018 30.06 847 25.01 -4.9 23.2 88 -6.6 20.2
23:20 1017 30.03 847 25.01 -5 23 89 -6.5 20.2
23:25 1017 30.03 847 25.01 -5.2 22.7 90 -6.5 20.3
23:30 1017 30.03 846 24.98 -5.4 22.2 92 -6.6 20.2
23:35 1017 30.03 846 24.98 -5.5 22.1 92 -6.6 20.2
23:40 1017 30.03 846 24.98 -5.4 22.3 91 -6.6 20
23:45 1017 30.03 846 24.98 -5.3 22.4 91 -6.7 20
23:50 1017 30.03 846 24.98 -5.2 22.6 90 -6.6 20.1
23:55 1017 30.03 846 24.98 -5.3 22.5 90 -6.7 20
24:00 1017 30.03 846 24.98 -5.3 22.5 89 -6.8 19.7